METAR Data
IDs: Format: Raw Decoded Include TAF

Data at: 2151 UTC 01 Oct 2022

LKLN 012100Z AUTO 25007KT 220V310 9999 OVC100 11/09 Q1014